createdAt,value
2022-12-09T00:01:53.877Z,61.38
2022-12-09T00:04:58.438Z,59.72
2022-12-09T00:08:02.909Z,60.57
2022-12-09T00:11:09.322Z,57.95
2022-12-09T00:14:13.657Z,54.67
2022-12-09T00:17:19.696Z,53.93
2022-12-09T00:20:24.271Z,53.88
2022-12-09T00:23:28.876Z,54.50
2022-12-09T00:26:34.075Z,54.33
2022-12-09T00:29:38.209Z,55.18
2022-12-09T00:32:43.069Z,53.23
2022-12-09T00:35:48.847Z,53.37
2022-12-09T00:38:54.727Z,55.63
2022-12-09T00:41:59.534Z,50.92
2022-12-09T00:45:06.117Z,53.47
2022-12-09T00:48:11.136Z,50.17
2022-12-09T00:51:19.082Z,51.54
2022-12-09T00:54:23.516Z,51.58
2022-12-09T00:57:27.928Z,50.56
2022-12-09T01:00:32.586Z,52.95
2022-12-09T01:03:37.506Z,53.39
2022-12-09T01:06:44.667Z,53.32
2022-12-09T01:09:49.645Z,53.74
2022-12-09T01:12:53.807Z,53.39
2022-12-09T01:15:58.533Z,52.74
2022-12-09T01:19:06.893Z,52.02
2022-12-09T01:22:11.118Z,51.66
2022-12-09T01:25:15.626Z,51.89
2022-12-09T01:28:20.779Z,49.19
2022-12-09T01:31:26.604Z,48.85
2022-12-09T01:34:31.006Z,48.63
2022-12-09T01:37:37.445Z,46.97
2022-12-09T01:40:47.842Z,48.59
2022-12-09T01:44:19.502Z,46.98
2022-12-09T01:47:24.339Z,47.85
2022-12-09T01:50:30.216Z,48.28
2022-12-09T01:53:39.690Z,47.24
2022-12-09T01:56:44.080Z,47.34
2022-12-09T01:59:48.751Z,47.42
2022-12-09T02:02:55.834Z,48.03
2022-12-09T02:06:00.432Z,48.83
2022-12-09T02:09:05.830Z,49.58
2022-12-09T02:12:30.560Z,50.15
2022-12-09T02:15:46.089Z,50.12
2022-12-09T02:18:59.771Z,49.10
2022-12-09T02:22:04.089Z,50.17
2022-12-09T02:25:35.949Z,49.04
2022-12-09T02:29:14.263Z,50.33
2022-12-09T02:32:56.122Z,49.94
2022-12-09T02:36:09.400Z,52.13
2022-12-09T02:39:15.408Z,52.17
2022-12-09T02:42:24.136Z,52.10
2022-12-09T02:45:31.093Z,51.50
2022-12-09T02:48:43.693Z,51.36
2022-12-09T02:51:51.525Z,51.04
2022-12-09T02:54:57.250Z,50.51
2022-12-09T02:58:02.890Z,51.44
2022-12-09T03:02:01.056Z,51.07
2022-12-09T03:05:05.876Z,51.30
2022-12-09T03:08:38.380Z,51.16
2022-12-09T03:11:43.239Z,51.07
2022-12-09T03:14:53.038Z,50.55
2022-12-09T03:17:59.893Z,51.08
2022-12-09T03:21:07.204Z,51.23
2022-12-09T03:24:14.907Z,51.53
2022-12-09T03:27:29.718Z,51.23
2022-12-09T03:30:40.272Z,51.50
2022-12-09T03:33:47.885Z,51.72
2022-12-09T03:36:54.019Z,51.08
2022-12-09T03:40:00.844Z,51.16
2022-12-09T03:43:14.598Z,51.92
2022-12-09T03:46:19.682Z,52.07
2022-12-09T03:49:24.246Z,52.16
2022-12-09T03:52:45.093Z,51.62
2022-12-09T03:56:12.968Z,52.39
2022-12-09T03:59:17.586Z,51.75
2022-12-09T04:02:22.655Z,52.23
2022-12-09T04:05:27.157Z,51.97
2022-12-09T04:08:32.016Z,51.80
2022-12-09T04:11:36.735Z,51.94
2022-12-09T04:14:42.045Z,52.51
2022-12-09T04:17:46.904Z,52.35
2022-12-09T04:20:51.150Z,53.32
2022-12-09T04:23:55.668Z,52.94
2022-12-09T04:27:00.238Z,52.74
2022-12-09T04:30:06.375Z,52.53
2022-12-09T04:33:11.414Z,53.01
2022-12-09T04:36:19.177Z,52.79
2022-12-09T04:39:23.441Z,53.75
2022-12-09T04:42:31.035Z,53.15
2022-12-09T04:45:35.762Z,52.68
2022-12-09T04:48:40.584Z,52.15
2022-12-09T04:51:45.139Z,52.54
2022-12-09T04:54:51.621Z,53.83
2022-12-09T04:57:56.270Z,53.43
2022-12-09T05:01:01.129Z,52.72
2022-12-09T05:04:06.369Z,53.06
2022-12-09T05:07:12.689Z,53.26
2022-12-09T05:10:17.513Z,53.01
2022-12-09T05:13:22.025Z,52.68
2022-12-09T05:16:26.680Z,53.79
2022-12-09T05:19:31.249Z,53.47
2022-12-09T05:22:36.401Z,53.68
2022-12-09T05:25:40.648Z,53.03
2022-12-09T05:28:45.164Z,53.30
2022-12-09T05:31:49.991Z,53.69
2022-12-09T05:34:54.972Z,54.00
2022-12-09T05:38:00.561Z,54.35
2022-12-09T05:41:05.326Z,53.81
2022-12-09T05:44:12.919Z,53.40
2022-12-09T05:47:17.848Z,54.00
2022-12-09T05:50:23.138Z,54.38
2022-12-09T05:53:28.590Z,54.26
2022-12-09T05:56:34.420Z,54.44
2022-12-09T05:59:39.235Z,55.03
2022-12-09T06:02:43.924Z,55.05
2022-12-09T06:05:48.793Z,54.09
2022-12-09T06:08:57.308Z,54.05
2022-12-09T06:12:01.868Z,54.14
2022-12-09T06:15:09.761Z,53.86
2022-12-09T06:18:15.209Z,54.57
2022-12-09T06:21:21.850Z,54.71
2022-12-09T06:24:26.347Z,54.89
2022-12-09T06:27:30.837Z,54.88
2022-12-09T06:30:35.378Z,54.88
2022-12-09T06:33:57.127Z,55.18
2022-12-09T06:37:02.787Z,54.92
2022-12-09T06:40:08.643Z,55.35
2022-12-09T06:43:12.804Z,55.38
2022-12-09T06:46:24.655Z,56.22
2022-12-09T06:49:29.533Z,56.37
2022-12-09T06:52:34.468Z,55.92
2022-12-09T06:55:39.087Z,56.00
2022-12-09T06:58:45.128Z,55.67
2022-12-09T07:01:49.879Z,55.35
2022-12-09T07:04:56.311Z,55.97
2022-12-09T07:08:01.143Z,55.70
2022-12-09T07:11:05.988Z,55.53
2022-12-09T07:14:11.745Z,54.79
2022-12-09T07:17:19.990Z,55.01
2022-12-09T07:20:24.714Z,54.91
2022-12-09T07:23:29.557Z,55.39
2022-12-09T07:26:35.201Z,55.79
2022-12-09T07:29:39.615Z,55.30
2022-12-09T07:32:44.378Z,55.98
2022-12-09T07:35:49.004Z,56.26
2022-12-09T07:39:12.841Z,56.33
2022-12-09T07:42:19.216Z,56.10
2022-12-09T07:45:30.247Z,56.33
2022-12-09T07:48:35.161Z,56.82
2022-12-09T07:51:45.294Z,56.97
2022-12-09T07:54:49.880Z,57.05
2022-12-09T07:57:54.560Z,57.03
2022-12-09T08:01:08.239Z,57.24
2022-12-09T08:04:13.188Z,58.83
2022-12-09T08:07:18.454Z,60.23
2022-12-09T08:10:22.879Z,60.03
2022-12-09T08:13:27.924Z,58.98
2022-12-09T08:16:32.807Z,60.39
2022-12-09T08:19:37.268Z,60.90
2022-12-09T08:22:41.991Z,61.68
2022-12-09T08:25:46.680Z,61.81
2022-12-09T08:28:51.715Z,61.30
2022-12-09T08:31:56.840Z,61.68
2022-12-09T08:35:02.064Z,62.06
2022-12-09T08:38:07.251Z,61.91
2022-12-09T08:41:20.795Z,62.80
2022-12-09T08:44:25.952Z,62.14
2022-12-09T08:47:30.626Z,62.33
2022-12-09T08:50:36.186Z,63.04
2022-12-09T08:53:40.900Z,62.33
2022-12-09T08:56:50.079Z,62.43
2022-12-09T08:59:55.073Z,62.32
2022-12-09T09:02:59.862Z,62.00
2022-12-09T09:06:10.451Z,62.41
2022-12-09T09:09:16.789Z,62.71
2022-12-09T09:12:21.487Z,63.48
2022-12-09T09:15:27.613Z,63.28
2022-12-09T09:18:31.960Z,63.06
2022-12-09T09:21:37.372Z,62.18
2022-12-09T09:24:42.358Z,63.01
2022-12-09T09:27:47.156Z,63.59
2022-12-09T09:30:51.448Z,63.00
2022-12-09T09:33:56.916Z,61.29
2022-12-09T09:37:01.720Z,61.95
2022-12-09T09:40:07.812Z,61.21
2022-12-09T09:43:18.260Z,61.26
2022-12-09T09:46:37.075Z,61.54
2022-12-09T09:50:03.506Z,63.65
2022-12-09T09:53:35.773Z,63.85
2022-12-09T09:56:55.429Z,63.99
2022-12-09T10:00:23.094Z,64.47
2022-12-09T10:03:53.676Z,64.73
2022-12-09T10:07:20.119Z,63.41
2022-12-09T10:10:43.438Z,64.40
2022-12-09T10:13:56.643Z,64.96
2022-12-09T10:17:30.204Z,64.79
2022-12-09T10:20:38.447Z,64.49
2022-12-09T10:23:44.970Z,64.96
2022-12-09T10:27:29.118Z,65.45
2022-12-09T10:30:41.753Z,64.61
2022-12-09T10:33:52.320Z,63.56
2022-12-09T10:36:57.217Z,63.57
2022-12-09T10:40:13.609Z,62.95
2022-12-09T10:43:39.595Z,62.75
2022-12-09T10:46:44.403Z,62.82
2022-12-09T10:49:53.473Z,63.22
2022-12-09T10:53:00.645Z,65.22
2022-12-09T10:56:05.821Z,67.71
2022-12-09T10:59:22.406Z,67.46
2022-12-09T11:02:29.411Z,67.55
2022-12-09T11:05:35.791Z,66.78
2022-12-09T11:08:43.440Z,66.70
2022-12-09T11:11:52.730Z,65.69
2022-12-09T11:15:02.102Z,64.63
2022-12-09T11:18:15.199Z,65.56
2022-12-09T11:21:33.446Z,64.59
2022-12-09T11:24:38.000Z,65.78
2022-12-09T11:27:54.575Z,65.30
2022-12-09T11:31:30.233Z,65.04
2022-12-09T11:34:38.132Z,66.22
2022-12-09T11:37:43.378Z,68.05
2022-12-09T11:41:04.199Z,67.94
2022-12-09T11:44:25.720Z,67.51
2022-12-09T11:51:06.225Z,67.55
2022-12-09T11:54:19.946Z,67.91
2022-12-09T11:57:39.934Z,67.97
2022-12-09T12:00:58.199Z,67.11
2022-12-09T12:04:09.054Z,65.50
2022-12-09T12:07:21.874Z,65.23
2022-12-09T12:10:43.056Z,64.80
2022-12-09T12:13:47.642Z,65.38
2022-12-09T12:17:08.672Z,65.38
2022-12-09T12:20:14.873Z,66.75
2022-12-09T12:23:47.305Z,66.27
2022-12-09T12:27:09.960Z,65.80
2022-12-09T12:30:17.913Z,64.82
2022-12-09T12:37:36.828Z,63.95
2022-12-09T12:41:09.660Z,65.34
2022-12-09T12:45:09.404Z,66.39
2022-12-09T12:48:28.674Z,65.83
2022-12-09T12:52:00.961Z,64.99
2022-12-09T12:55:23.794Z,64.54
2022-12-09T12:58:55.888Z,66.12
2022-12-09T13:02:24.628Z,64.38
2022-12-09T13:05:43.588Z,64.72
2022-12-09T13:09:01.305Z,66.09
2022-12-09T13:12:16.556Z,66.26
2022-12-09T13:15:26.897Z,65.79
2022-12-09T13:18:39.887Z,68.00
2022-12-09T13:21:48.733Z,68.48
2022-12-09T13:25:14.424Z,67.93
2022-12-09T13:28:30.196Z,68.91
2022-12-09T13:31:37.973Z,68.82
2022-12-09T13:34:55.926Z,67.29
2022-12-09T13:38:01.527Z,66.90
2022-12-09T13:41:23.731Z,65.80
2022-12-09T13:44:35.299Z,67.01
2022-12-09T13:47:39.790Z,66.93
2022-12-09T13:50:45.343Z,66.31
2022-12-09T13:54:13.531Z,65.97
2022-12-09T13:57:42.654Z,65.32
2022-12-09T14:01:05.435Z,65.69
2022-12-09T14:04:22.550Z,65.00
2022-12-09T14:07:42.659Z,64.50
2022-12-09T14:10:50.139Z,64.38
2022-12-09T14:14:17.301Z,63.92
2022-12-09T14:17:30.617Z,65.09
2022-12-09T14:20:37.804Z,64.90
2022-12-09T14:24:17.317Z,66.24
2022-12-09T14:27:26.584Z,67.67
2022-12-09T14:30:30.700Z,68.70
2022-12-09T14:33:50.960Z,68.57
2022-12-09T14:37:20.897Z,69.17
2022-12-09T14:41:02.134Z,69.83
2022-12-09T14:44:32.125Z,70.42
2022-12-09T14:47:43.168Z,69.59
2022-12-09T14:50:47.827Z,68.35
2022-12-09T14:53:57.590Z,68.87
2022-12-09T14:57:10.643Z,69.49
2022-12-09T15:00:41.186Z,69.35
2022-12-09T15:03:57.106Z,68.95
2022-12-09T15:07:14.540Z,69.06
2022-12-09T15:10:34.672Z,69.54
2022-12-09T15:13:42.044Z,68.61
2022-12-09T15:16:50.538Z,68.73
2022-12-09T15:20:02.577Z,68.63
2022-12-09T15:23:39.680Z,67.87
2022-12-09T15:26:43.787Z,68.05
2022-12-09T15:29:49.729Z,68.31
2022-12-09T15:32:54.010Z,68.51
2022-12-09T15:36:01.368Z,68.01
2022-12-09T15:39:20.268Z,67.45
2022-12-09T15:42:28.602Z,67.41
2022-12-09T15:45:38.106Z,67.08
2022-12-09T15:48:50.350Z,67.25
2022-12-09T15:51:57.327Z,66.63
2022-12-09T15:55:07.657Z,66.57
2022-12-09T15:58:15.981Z,67.06
2022-12-09T16:01:27.200Z,65.98
2022-12-09T16:04:42.553Z,67.35
2022-12-09T16:08:01.405Z,66.67
2022-12-09T16:11:06.557Z,67.10
2022-12-09T16:14:12.149Z,67.29
2022-12-09T16:17:23.712Z,68.26
2022-12-09T16:20:45.162Z,66.89
2022-12-09T16:23:57.057Z,64.79
2022-12-09T16:27:05.617Z,65.68
2022-12-09T16:30:22.159Z,65.42
2022-12-09T16:33:26.827Z,66.31
2022-12-09T16:36:33.299Z,65.87
2022-12-09T16:39:44.328Z,66.20
2022-12-09T16:42:49.681Z,66.45
2022-12-09T16:45:59.542Z,67.40
2022-12-09T16:49:05.864Z,67.91
2022-12-09T16:52:24.644Z,67.36
2022-12-09T16:55:33.244Z,66.70
2022-12-09T16:58:38.146Z,67.15
2022-12-09T17:01:43.784Z,66.87
2022-12-09T17:04:48.467Z,67.25
2022-12-09T17:07:53.103Z,66.58
2022-12-09T17:10:57.438Z,65.81
2022-12-09T17:14:01.986Z,65.52
2022-12-09T17:17:06.681Z,65.46
2022-12-09T17:20:12.042Z,65.09
2022-12-09T17:23:16.085Z,66.98
2022-12-09T17:26:21.774Z,67.42
2022-12-09T17:29:26.593Z,66.56
2022-12-09T17:32:30.858Z,65.86
2022-12-09T17:35:39.789Z,66.65
2022-12-09T17:38:44.728Z,67.52
2022-12-09T17:41:50.457Z,67.48
2022-12-09T17:44:54.905Z,66.56
2022-12-09T17:47:59.149Z,67.29
2022-12-09T17:51:21.325Z,68.25
2022-12-09T17:54:25.683Z,66.76
2022-12-09T17:57:30.060Z,66.21
2022-12-09T18:00:34.630Z,65.73
2022-12-09T18:03:55.406Z,65.62
2022-12-09T18:07:00.917Z,65.34
2022-12-09T18:10:06.169Z,67.14
2022-12-09T18:13:10.397Z,66.87
2022-12-09T18:16:15.564Z,67.21
2022-12-09T18:19:21.566Z,66.87
2022-12-09T18:22:25.928Z,66.77
2022-12-09T18:25:30.413Z,67.24
2022-12-09T18:28:34.890Z,67.69
2022-12-09T18:31:40.125Z,67.59
2022-12-09T18:34:44.496Z,67.36
2022-12-09T18:37:48.913Z,66.95
2022-12-09T18:41:01.937Z,67.22
2022-12-09T18:44:08.347Z,66.59
2022-12-09T18:47:13.030Z,66.72
2022-12-09T18:50:17.258Z,67.19
2022-12-09T18:53:21.870Z,67.01
2022-12-09T18:56:26.930Z,65.77
2022-12-09T18:59:32.333Z,65.13
2022-12-09T19:02:38.258Z,64.83
2022-12-09T19:05:43.959Z,65.46
2022-12-09T19:08:48.926Z,64.90
2022-12-09T19:11:54.500Z,65.52
2022-12-09T19:14:58.921Z,66.16
2022-12-09T19:18:03.331Z,66.47
2022-12-09T19:21:16.115Z,66.66
2022-12-09T19:24:23.455Z,66.09
2022-12-09T19:27:27.978Z,66.54
2022-12-09T19:30:32.134Z,67.70
2022-12-09T19:33:37.450Z,65.95
2022-12-09T19:36:43.524Z,64.96
2022-12-09T19:39:47.901Z,65.15
2022-12-09T19:42:52.539Z,64.75
2022-12-09T19:45:56.824Z,66.11
2022-12-09T19:49:01.921Z,65.31
2022-12-09T19:52:06.223Z,65.13
2022-12-09T19:55:14.380Z,65.84
2022-12-09T19:58:18.793Z,66.38
2022-12-09T20:01:26.229Z,66.00
2022-12-09T20:04:49.502Z,66.45
2022-12-09T20:07:55.062Z,65.90
2022-12-09T20:10:59.411Z,66.22
2022-12-09T20:14:06.029Z,65.98
2022-12-09T20:17:10.343Z,66.60
2022-12-09T20:20:14.861Z,65.63
2022-12-09T20:23:19.254Z,65.21
2022-12-09T20:26:29.078Z,65.29
2022-12-09T20:29:37.545Z,66.33
2022-12-09T20:32:42.379Z,65.46
2022-12-09T20:35:46.769Z,66.31
2022-12-09T20:38:53.845Z,65.49
2022-12-09T20:41:58.373Z,65.47
2022-12-09T20:45:02.903Z,66.79
2022-12-09T20:48:08.289Z,67.09
2022-12-09T20:51:26.615Z,66.91
2022-12-09T20:54:31.049Z,66.32
2022-12-09T20:57:35.688Z,66.50
2022-12-09T21:00:39.956Z,65.35
2022-12-09T21:03:45.130Z,65.79
2022-12-09T21:06:49.856Z,64.85
2022-12-09T21:09:54.462Z,66.05
2022-12-09T21:12:59.770Z,65.46
2022-12-09T21:16:09.669Z,66.14
2022-12-09T21:19:16.713Z,66.62
2022-12-09T21:22:21.224Z,66.41
2022-12-09T21:25:25.665Z,65.90
2022-12-09T21:28:30.257Z,65.89
2022-12-09T21:31:36.740Z,66.57
2022-12-09T21:34:41.234Z,66.07
2022-12-09T21:37:49.621Z,65.32
2022-12-09T21:40:57.411Z,65.34
2022-12-09T21:44:02.288Z,64.68
2022-12-09T21:47:06.660Z,64.42
2022-12-09T21:50:11.591Z,64.58
2022-12-09T21:53:16.056Z,64.87
2022-12-09T21:56:21.611Z,65.72
2022-12-09T21:59:26.279Z,65.22
2022-12-09T22:02:30.686Z,66.34
2022-12-09T22:05:35.571Z,66.37
2022-12-09T22:08:41.213Z,66.56
2022-12-09T22:11:45.499Z,66.19
2022-12-09T22:14:49.875Z,66.92
2022-12-09T22:17:54.499Z,66.69
2022-12-09T22:21:24.078Z,65.99
2022-12-09T22:24:23.894Z,65.47
2022-12-09T22:27:30.265Z,64.47
2022-12-09T22:30:37.347Z,64.46
2022-12-09T22:33:41.701Z,64.75
2022-12-09T22:36:48.039Z,65.39
2022-12-09T22:39:53.083Z,66.17
2022-12-09T22:42:57.537Z,66.58
2022-12-09T22:46:10.539Z,66.31
2022-12-09T22:49:16.581Z,66.00
2022-12-09T22:52:21.127Z,66.01
2022-12-09T22:55:25.322Z,65.52
2022-12-09T22:58:29.746Z,65.72
2022-12-09T23:01:37.953Z,65.68
2022-12-09T23:04:42.742Z,65.73
2022-12-09T23:07:47.117Z,64.43
2022-12-09T23:10:51.452Z,65.63
2022-12-09T23:13:56.247Z,66.05
2022-12-09T23:17:00.959Z,66.09
2022-12-09T23:20:06.069Z,66.05
2022-12-09T23:23:10.955Z,65.72
2022-12-09T23:26:20.757Z,64.83
2022-12-09T23:29:25.674Z,64.65
2022-12-09T23:32:30.273Z,64.09
2022-12-09T23:35:39.434Z,64.30
2022-12-09T23:38:44.750Z,64.02
2022-12-09T23:41:49.749Z,65.54
2022-12-09T23:44:54.125Z,66.36
2022-12-09T23:47:58.574Z,66.02
2022-12-09T23:51:16.786Z,65.27
2022-12-09T23:54:21.085Z,63.88
2022-12-09T23:57:25.372Z,63.48
